createdAt,value
2019-01-30T00:02:04.600Z,23.87
2019-01-30T00:04:33.973Z,22.20
2019-01-30T00:07:03.200Z,36.03
2019-01-30T00:09:32.624Z,20.63
2019-01-30T00:12:01.879Z,19.90
2019-01-30T00:14:31.268Z,20.00
2019-01-30T00:17:00.497Z,20.27
2019-01-30T00:19:29.845Z,15.60
2019-01-30T00:21:59.299Z,18.23
2019-01-30T00:24:28.570Z,17.10
2019-01-30T00:26:58.061Z,22.43
2019-01-30T00:29:27.302Z,19.20
2019-01-30T00:31:56.539Z,24.23
2019-01-30T00:34:25.799Z,20.40
2019-01-30T00:36:55.062Z,17.53
2019-01-30T00:39:24.462Z,24.80
2019-01-30T00:41:54.933Z,20.47
2019-01-30T00:44:24.161Z,23.07
2019-01-30T00:46:53.513Z,20.73
2019-01-30T00:49:22.835Z,18.23
2019-01-30T00:51:53.345Z,17.37
2019-01-30T00:54:31.856Z,18.53
2019-01-30T00:56:53.697Z,21.63
2019-01-30T00:59:23.077Z,22.30
2019-01-30T01:01:52.411Z,19.87
2019-01-30T01:04:21.804Z,22.00
2019-01-30T01:06:51.130Z,20.63
2019-01-30T01:09:20.624Z,21.30
2019-01-30T01:11:49.985Z,18.23
2019-01-30T01:14:19.238Z,20.53
2019-01-30T01:16:48.835Z,19.77
2019-01-30T01:19:18.066Z,20.60
2019-01-30T01:21:47.601Z,19.40
2019-01-30T01:24:18.512Z,22.77
2019-01-30T01:26:47.940Z,19.97
2019-01-30T01:29:17.162Z,20.40
2019-01-30T01:31:46.403Z,19.83
2019-01-30T01:34:15.638Z,16.57
2019-01-30T01:36:44.895Z,17.87
2019-01-30T01:39:14.178Z,22.50
2019-01-30T01:41:43.646Z,13.97
2019-01-30T01:44:12.962Z,13.23
2019-01-30T01:46:42.337Z,12.00
2019-01-30T01:49:11.593Z,11.83
2019-01-30T01:51:41.085Z,10.37
2019-01-30T01:54:10.325Z,12.47
2019-01-30T01:56:39.773Z,11.67
2019-01-30T01:59:09.009Z,13.73
2019-01-30T02:01:38.337Z,12.90
2019-01-30T02:04:07.613Z,16.27
2019-01-30T02:06:37.044Z,11.57
2019-01-30T02:09:08.913Z,12.80
2019-01-30T02:11:38.366Z,10.87
2019-01-30T02:14:07.586Z,14.97
2019-01-30T02:16:37.181Z,12.50
2019-01-30T02:19:06.501Z,15.37
2019-01-30T02:21:40.106Z,17.00
2019-01-30T02:24:09.396Z,11.30
2019-01-30T02:26:38.777Z,11.93
2019-01-30T02:29:08.098Z,10.30
2019-01-30T02:31:37.341Z,10.90
2019-01-30T02:34:06.606Z,14.33
2019-01-30T02:36:54.992Z,11.73
2019-01-30T02:39:24.314Z,12.50
2019-01-30T02:41:54.155Z,12.67
2019-01-30T02:44:24.558Z,11.83
2019-01-30T02:46:53.897Z,10.57
2019-01-30T02:49:23.204Z,14.23
2019-01-30T02:51:52.617Z,13.33
2019-01-30T02:54:21.941Z,15.90
2019-01-30T02:56:51.237Z,14.07
2019-01-30T02:59:20.450Z,13.37
2019-01-30T03:02:09.833Z,12.73
2019-01-30T03:04:39.178Z,12.77
2019-01-30T03:07:08.570Z,14.27
2019-01-30T03:09:37.901Z,17.20
2019-01-30T03:12:07.137Z,11.63
2019-01-30T03:14:36.681Z,10.40
2019-01-30T03:17:05.899Z,9.63
2019-01-30T03:19:35.243Z,9.50
2019-01-30T03:22:04.599Z,9.97
2019-01-30T03:24:34.143Z,13.90
2019-01-30T03:27:03.390Z,10.20
2019-01-30T03:29:32.851Z,9.40
2019-01-30T03:32:02.141Z,9.13
2019-01-30T03:34:31.561Z,11.20
2019-01-30T03:37:00.871Z,8.50
2019-01-30T03:39:30.129Z,7.53
2019-01-30T03:41:59.541Z,13.67
2019-01-30T03:44:28.865Z,12.07
2019-01-30T03:46:58.321Z,6.30
2019-01-30T03:49:27.776Z,9.17
2019-01-30T03:51:57.102Z,9.10
2019-01-30T03:54:27.020Z,12.20
2019-01-30T03:56:56.305Z,8.80
2019-01-30T03:59:25.785Z,10.03
2019-01-30T04:01:55.071Z,10.50
2019-01-30T04:04:24.694Z,12.60
2019-01-30T04:06:54.109Z,14.67
2019-01-30T04:09:23.507Z,17.03
2019-01-30T04:11:52.940Z,16.83
2019-01-30T04:14:22.190Z,10.93
2019-01-30T04:16:51.604Z,10.23
2019-01-30T04:19:21.045Z,10.37
2019-01-30T04:21:50.853Z,24.17
2019-01-30T04:24:20.324Z,11.30
2019-01-30T04:26:49.755Z,14.23
2019-01-30T04:29:19.044Z,13.00
2019-01-30T04:31:48.725Z,8.43
2019-01-30T04:34:18.101Z,11.47
2019-01-30T04:36:47.535Z,14.53
2019-01-30T04:39:17.145Z,10.00
2019-01-30T04:41:46.442Z,14.50
2019-01-30T04:44:15.946Z,12.57
2019-01-30T04:46:45.378Z,11.07
2019-01-30T04:49:14.735Z,10.33
2019-01-30T04:51:44.593Z,9.90
2019-01-30T04:54:14.462Z,11.90
2019-01-30T04:56:43.848Z,9.97
2019-01-30T04:59:13.249Z,10.83
2019-01-30T05:01:49.508Z,9.37
2019-01-30T05:04:13.520Z,14.03
2019-01-30T05:06:43.006Z,11.63
2019-01-30T05:09:12.336Z,12.07
2019-01-30T05:11:41.712Z,11.77
2019-01-30T05:14:11.018Z,11.43
2019-01-30T05:16:40.341Z,12.17
2019-01-30T05:19:09.633Z,12.43
2019-01-30T05:21:39.141Z,16.00
2019-01-30T05:24:08.473Z,13.87
2019-01-30T05:26:37.925Z,15.93
2019-01-30T05:29:07.218Z,16.63
2019-01-30T05:31:36.785Z,15.43
2019-01-30T05:34:06.112Z,17.47
2019-01-30T05:36:35.564Z,17.43
2019-01-30T05:39:08.022Z,16.33
2019-01-30T05:41:37.729Z,18.63
2019-01-30T05:44:07.084Z,16.43
2019-01-30T05:46:36.778Z,13.03
2019-01-30T05:49:06.118Z,19.73
2019-01-30T05:51:35.530Z,15.73
2019-01-30T05:54:04.896Z,25.10
2019-01-30T05:56:34.274Z,23.17
2019-01-30T05:59:03.582Z,19.00
2019-01-30T06:01:34.059Z,22.70
2019-01-30T06:04:03.414Z,22.13
2019-01-30T06:06:33.782Z,18.87
2019-01-30T06:09:04.464Z,21.90
2019-01-30T06:11:34.964Z,22.90
2019-01-30T06:14:04.445Z,22.90
2019-01-30T06:16:33.808Z,20.83
2019-01-30T06:19:03.168Z,24.30
2019-01-30T06:21:32.438Z,28.83
2019-01-30T06:24:01.925Z,29.03
2019-01-30T06:26:32.781Z,24.67
2019-01-30T06:29:02.361Z,22.70
2019-01-30T06:31:34.430Z,26.27
2019-01-30T06:34:03.992Z,26.17
2019-01-30T06:36:33.254Z,28.40
2019-01-30T06:39:02.653Z,33.40
2019-01-30T06:41:32.227Z,29.13
2019-01-30T06:44:01.845Z,31.90
2019-01-30T06:46:31.202Z,23.67
2019-01-30T06:49:00.675Z,31.60
2019-01-30T06:51:30.116Z,32.07
2019-01-30T06:53:59.546Z,30.40
2019-01-30T06:56:29.314Z,29.87
2019-01-30T06:58:58.577Z,27.83
2019-01-30T07:01:28.969Z,31.73
2019-01-30T07:03:58.302Z,29.53
2019-01-30T07:06:29.338Z,34.17
2019-01-30T07:08:58.763Z,32.83
2019-01-30T07:11:28.187Z,34.23
2019-01-30T07:13:59.257Z,35.77
2019-01-30T07:16:28.689Z,34.73
2019-01-30T07:18:58.093Z,37.30
2019-01-30T07:21:27.348Z,35.97
2019-01-30T07:23:56.836Z,38.17
2019-01-30T07:26:26.170Z,40.77
2019-01-30T07:28:55.501Z,40.67
2019-01-30T07:31:24.938Z,42.53
2019-01-30T07:33:54.379Z,41.30
2019-01-30T07:36:23.777Z,43.10
2019-01-30T07:38:53.140Z,39.83
2019-01-30T07:41:22.585Z,39.03
2019-01-30T07:43:51.854Z,42.33
2019-01-30T07:46:21.377Z,46.13
2019-01-30T07:48:52.269Z,46.83
2019-01-30T07:51:21.642Z,44.73
2019-01-30T07:53:51.085Z,44.57
2019-01-30T07:56:20.373Z,43.20
2019-01-30T07:58:49.705Z,40.97
2019-01-30T08:01:19.049Z,38.63
2019-01-30T08:03:48.595Z,41.53
2019-01-30T08:06:19.551Z,37.63
2019-01-30T08:08:49.751Z,40.43
2019-01-30T08:11:19.120Z,37.53
2019-01-30T08:13:48.507Z,38.77
2019-01-30T08:16:17.884Z,41.17
2019-01-30T08:18:47.242Z,37.27
2019-01-30T08:21:16.481Z,42.43
2019-01-30T08:23:46.303Z,40.07
2019-01-30T08:26:15.929Z,47.10
2019-01-30T08:28:46.328Z,41.53
2019-01-30T08:31:15.887Z,41.73
2019-01-30T08:33:45.295Z,40.20
2019-01-30T08:36:14.717Z,39.83
2019-01-30T08:38:43.962Z,38.33
2019-01-30T08:41:13.336Z,38.53
2019-01-30T08:43:42.895Z,40.33
2019-01-30T08:46:12.232Z,36.57
2019-01-30T08:48:41.545Z,36.90
2019-01-30T08:51:10.979Z,36.73
2019-01-30T08:53:40.509Z,34.47
2019-01-30T08:56:10.005Z,37.20
2019-01-30T08:58:39.245Z,35.33
2019-01-30T09:01:08.729Z,33.87
2019-01-30T09:03:38.009Z,42.87
2019-01-30T09:06:07.477Z,35.43
2019-01-30T09:08:36.952Z,36.70
2019-01-30T09:11:06.829Z,41.87
2019-01-30T09:13:36.470Z,32.70
2019-01-30T09:16:05.925Z,30.93
2019-01-30T09:18:35.327Z,32.97
2019-01-30T09:21:04.789Z,32.03
2019-01-30T09:23:34.941Z,33.37
2019-01-30T09:26:04.295Z,37.87
2019-01-30T09:28:33.689Z,31.80
2019-01-30T09:31:02.973Z,30.87
2019-01-30T09:33:32.354Z,25.27
2019-01-30T09:36:01.650Z,24.47
2019-01-30T09:38:33.566Z,31.23
2019-01-30T09:41:03.162Z,23.83
2019-01-30T09:43:32.502Z,24.67
2019-01-30T09:46:03.613Z,26.97
2019-01-30T09:48:32.907Z,25.10
2019-01-30T09:51:02.291Z,23.47
2019-01-30T09:53:31.746Z,25.77
2019-01-30T09:56:01.253Z,26.53
2019-01-30T09:58:30.557Z,26.67
2019-01-30T10:01:00.068Z,25.23
2019-01-30T10:03:36.001Z,25.63
2019-01-30T10:06:01.705Z,22.83
2019-01-30T10:08:31.512Z,25.17
2019-01-30T10:11:00.927Z,29.33
2019-01-30T10:13:30.606Z,27.57
2019-01-30T10:16:00.105Z,25.37
2019-01-30T10:18:30.569Z,24.63
2019-01-30T10:21:02.002Z,27.73
2019-01-30T10:23:31.385Z,29.73
2019-01-30T10:26:00.827Z,28.90
2019-01-30T10:28:30.191Z,28.97
2019-01-30T10:30:59.516Z,29.87
2019-01-30T10:33:29.066Z,29.17
2019-01-30T10:35:58.745Z,30.70
2019-01-30T10:38:28.577Z,26.90
2019-01-30T10:40:58.040Z,26.63
2019-01-30T10:43:27.551Z,33.80
2019-01-30T10:45:57.015Z,33.20
2019-01-30T10:48:26.422Z,38.00
2019-01-30T10:50:55.920Z,31.37
2019-01-30T10:53:25.665Z,33.47
2019-01-30T10:55:55.145Z,35.40
2019-01-30T10:58:24.471Z,30.87
2019-01-30T11:00:53.752Z,29.33
2019-01-30T11:03:23.119Z,34.70
2019-01-30T11:05:53.517Z,35.87
2019-01-30T11:08:22.939Z,31.43
2019-01-30T11:10:52.466Z,34.70
2019-01-30T11:13:21.889Z,31.27
2019-01-30T11:15:51.851Z,29.03
2019-01-30T11:18:21.130Z,29.73
2019-01-30T11:20:50.632Z,29.13
2019-01-30T11:23:19.854Z,36.63
2019-01-30T11:25:50.608Z,34.60
2019-01-30T11:28:19.922Z,32.27
2019-01-30T11:30:49.416Z,34.40
2019-01-30T11:33:18.781Z,34.07
2019-01-30T11:35:48.381Z,29.47
2019-01-30T11:38:17.927Z,30.53
2019-01-30T11:40:47.354Z,34.87
2019-01-30T11:43:16.667Z,34.90
2019-01-30T11:45:46.447Z,33.20
2019-01-30T11:48:16.030Z,33.87
2019-01-30T11:50:45.338Z,35.83
2019-01-30T11:53:14.833Z,33.60
2019-01-30T11:55:54.166Z,31.93
2019-01-30T11:58:23.629Z,32.73
2019-01-30T12:01:20.035Z,33.30
2019-01-30T12:03:49.466Z,29.10
2019-01-30T12:06:20.887Z,30.93
2019-01-30T12:08:51.964Z,34.57
2019-01-30T12:11:21.269Z,30.73
2019-01-30T12:13:50.805Z,31.13
2019-01-30T12:16:20.204Z,32.70
2019-01-30T12:18:50.085Z,32.53
2019-01-30T12:21:19.385Z,35.17
2019-01-30T12:23:48.813Z,28.33
2019-01-30T12:26:20.393Z,29.47
2019-01-30T12:28:49.806Z,36.57
2019-01-30T12:31:19.186Z,36.57
2019-01-30T12:33:48.724Z,31.40
2019-01-30T12:36:18.030Z,31.27
2019-01-30T12:38:47.423Z,27.53
2019-01-30T12:41:17.124Z,32.20
2019-01-30T12:43:46.528Z,29.20
2019-01-30T12:46:16.493Z,31.33
2019-01-30T12:48:48.874Z,32.10
2019-01-30T12:51:18.194Z,32.83
2019-01-30T12:53:47.785Z,31.67
2019-01-30T12:56:16.997Z,32.57
2019-01-30T12:58:46.429Z,36.23
2019-01-30T13:01:15.699Z,38.60
2019-01-30T13:03:47.281Z,34.87
2019-01-30T13:06:18.677Z,41.10
2019-01-30T13:08:48.849Z,36.90
2019-01-30T13:11:18.173Z,40.47
2019-01-30T13:13:48.612Z,38.47
2019-01-30T13:16:19.118Z,39.93
2019-01-30T13:18:49.619Z,33.40
2019-01-30T13:21:20.754Z,35.33
2019-01-30T13:23:51.401Z,40.13
2019-01-30T13:26:21.597Z,42.73
2019-01-30T13:28:50.899Z,40.20
2019-01-30T13:31:22.919Z,38.37
2019-01-30T13:33:52.221Z,37.23
2019-01-30T13:36:23.168Z,44.10
2019-01-30T13:38:52.530Z,37.37
2019-01-30T13:41:23.033Z,38.27
2019-01-30T13:43:53.733Z,32.97
2019-01-30T13:46:23.086Z,39.50
2019-01-30T13:48:52.453Z,42.63
2019-01-30T13:51:21.800Z,44.33
2019-01-30T13:53:53.606Z,43.43
2019-01-30T13:56:23.089Z,58.40
2019-01-30T13:58:52.678Z,50.10
2019-01-30T14:01:22.059Z,48.43
2019-01-30T14:03:51.532Z,48.13
2019-01-30T14:06:20.931Z,49.90
2019-01-30T14:08:50.500Z,47.27
2019-01-30T14:11:19.793Z,48.37
2019-01-30T14:13:49.289Z,48.50
2019-01-30T14:16:22.043Z,50.20
2019-01-30T14:18:52.461Z,48.97
2019-01-30T14:21:22.458Z,53.23
2019-01-30T14:23:52.211Z,52.10
2019-01-30T14:26:21.925Z,49.57
2019-01-30T14:28:52.170Z,48.00
2019-01-30T14:31:21.814Z,53.30
2019-01-30T14:33:52.084Z,47.63
2019-01-30T14:36:22.975Z,52.33
2019-01-30T14:38:52.600Z,47.80
2019-01-30T14:41:21.893Z,49.03
2019-01-30T14:43:52.323Z,44.37
2019-01-30T14:46:21.837Z,45.90
2019-01-30T14:48:51.456Z,44.23
2019-01-30T14:51:21.013Z,43.83
2019-01-30T14:53:50.444Z,46.33
2019-01-30T14:56:21.733Z,44.70
2019-01-30T14:58:52.219Z,45.33
2019-01-30T15:01:21.829Z,44.50
2019-01-30T15:03:51.848Z,49.63
2019-01-30T15:06:21.196Z,48.23
2019-01-30T15:08:50.574Z,46.03
2019-01-30T15:11:20.671Z,43.47
2019-01-30T15:13:54.572Z,47.57
2019-01-30T15:16:23.930Z,52.17
2019-01-30T15:18:53.713Z,50.20
2019-01-30T15:21:24.004Z,46.63
2019-01-30T15:23:53.538Z,49.53
2019-01-30T15:26:22.832Z,51.73
2019-01-30T15:28:52.180Z,48.97
2019-01-30T15:31:21.620Z,51.53
2019-01-30T15:33:51.024Z,48.50
2019-01-30T15:36:20.319Z,47.50
2019-01-30T15:38:50.337Z,50.73
2019-01-30T15:41:22.813Z,52.97
2019-01-30T15:43:53.123Z,54.43
2019-01-30T15:46:25.071Z,52.13
2019-01-30T15:48:56.516Z,51.13
2019-01-30T15:51:27.258Z,46.97
2019-01-30T15:53:57.402Z,56.00
2019-01-30T15:56:26.807Z,54.47
2019-01-30T15:58:56.319Z,51.43
2019-01-30T16:01:33.290Z,53.33
2019-01-30T16:04:05.945Z,52.37
2019-01-30T16:06:33.899Z,57.30
2019-01-30T16:09:04.527Z,56.57
2019-01-30T16:11:33.924Z,60.30
2019-01-30T16:14:03.862Z,58.00
2019-01-30T16:16:33.963Z,61.63
2019-01-30T16:19:05.549Z,60.30
2019-01-30T16:21:44.266Z,60.80
2019-01-30T16:24:14.911Z,55.00
2019-01-30T16:26:45.069Z,60.13
2019-01-30T16:29:15.552Z,56.67
2019-01-30T16:31:46.279Z,60.07
2019-01-30T16:34:15.582Z,59.30
2019-01-30T16:36:47.807Z,58.37
2019-01-30T16:39:18.073Z,58.20
2019-01-30T16:41:48.003Z,56.87
2019-01-30T16:44:17.285Z,59.87
2019-01-30T16:46:46.626Z,55.97
2019-01-30T16:49:17.674Z,60.67
2019-01-30T16:51:56.492Z,58.67
2019-01-30T16:54:30.384Z,67.07
2019-01-30T16:57:01.614Z,73.90
2019-01-30T16:59:31.065Z,62.00
2019-01-30T17:02:01.901Z,65.40
2019-01-30T17:04:33.769Z,69.67
2019-01-30T17:07:03.105Z,64.47
2019-01-30T17:09:34.202Z,64.57
2019-01-30T17:12:03.523Z,73.97
2019-01-30T17:14:33.074Z,68.77
2019-01-30T17:17:03.007Z,62.30
2019-01-30T17:19:32.316Z,60.90
2019-01-30T17:22:01.712Z,58.83
2019-01-30T17:24:31.133Z,58.93
2019-01-30T17:27:01.786Z,63.57
2019-01-30T17:29:31.123Z,59.77
2019-01-30T17:32:01.419Z,58.47
2019-01-30T17:34:30.968Z,58.70
2019-01-30T17:37:00.456Z,59.03
2019-01-30T17:39:30.284Z,58.70
2019-01-30T17:41:59.773Z,65.37
2019-01-30T17:44:29.037Z,69.57
2019-01-30T17:46:59.136Z,56.20
2019-01-30T17:49:28.618Z,60.43
2019-01-30T17:51:59.427Z,59.53
2019-01-30T17:54:30.486Z,62.10
2019-01-30T17:56:59.767Z,54.73
2019-01-30T17:59:30.180Z,55.47
2019-01-30T18:01:59.477Z,64.57
2019-01-30T18:04:30.077Z,62.17
2019-01-30T18:06:59.396Z,75.93
2019-01-30T18:09:30.946Z,71.73
2019-01-30T18:12:00.217Z,56.13
2019-01-30T18:14:29.904Z,56.30
2019-01-30T18:16:59.183Z,48.97
2019-01-30T18:19:28.633Z,52.43
2019-01-30T18:21:58.045Z,49.80
2019-01-30T18:24:27.401Z,50.13
2019-01-30T18:26:56.792Z,54.27
2019-01-30T18:29:26.106Z,57.33
2019-01-30T18:31:55.616Z,52.43
2019-01-30T18:34:24.937Z,44.60
2019-01-30T18:36:54.597Z,53.07
2019-01-30T18:39:23.961Z,53.67
2019-01-30T18:41:53.363Z,61.10
2019-01-30T18:44:22.618Z,51.43
2019-01-30T18:46:51.948Z,48.43
2019-01-30T18:49:21.438Z,51.33
2019-01-30T18:51:51.061Z,53.13
2019-01-30T18:54:20.434Z,66.57
2019-01-30T18:56:49.886Z,48.63
2019-01-30T18:59:19.143Z,47.97
2019-01-30T19:01:48.603Z,48.57
2019-01-30T19:04:17.910Z,52.10
2019-01-30T19:06:52.423Z,46.60
2019-01-30T19:09:18.662Z,54.50
2019-01-30T19:11:48.097Z,43.70
2019-01-30T19:14:17.718Z,49.33
2019-01-30T19:16:47.181Z,46.80
2019-01-30T19:19:16.545Z,51.70
2019-01-30T19:21:46.008Z,50.43
2019-01-30T19:24:15.504Z,50.33
2019-01-30T19:26:44.870Z,45.67
2019-01-30T19:29:14.309Z,50.90
2019-01-30T19:31:43.766Z,45.00
2019-01-30T19:34:13.120Z,46.77
2019-01-30T19:36:42.396Z,46.33
2019-01-30T19:39:12.005Z,47.73
2019-01-30T19:41:41.251Z,49.43
2019-01-30T19:44:12.103Z,43.97
2019-01-30T19:46:41.357Z,50.73
2019-01-30T19:49:10.823Z,49.37
2019-01-30T19:51:40.218Z,51.03
2019-01-30T19:54:09.708Z,48.70
2019-01-30T19:56:38.952Z,53.73
2019-01-30T19:59:16.992Z,49.03
2019-01-30T20:01:39.607Z,47.00
2019-01-30T20:04:09.735Z,47.53
2019-01-30T20:06:39.344Z,46.70
2019-01-30T20:09:16.577Z,53.07
2019-01-30T20:11:45.857Z,50.87
2019-01-30T20:14:16.175Z,45.57
2019-01-30T20:16:45.667Z,48.10
2019-01-30T20:19:16.256Z,53.27
2019-01-30T20:21:45.544Z,49.93
2019-01-30T20:24:15.395Z,52.50
2019-01-30T20:26:44.705Z,50.77
2019-01-30T20:29:14.827Z,49.90
2019-01-30T20:31:44.349Z,51.63
2019-01-30T20:34:14.447Z,49.13
2019-01-30T20:36:44.210Z,50.43
2019-01-30T20:39:14.633Z,52.00
2019-01-30T20:41:43.933Z,50.83
2019-01-30T20:44:14.781Z,47.40
2019-01-30T20:46:45.749Z,50.60
2019-01-30T20:49:16.189Z,45.47
2019-01-30T20:51:45.524Z,48.43
2019-01-30T20:54:15.770Z,47.63
2019-01-30T20:56:45.290Z,48.77
2019-01-30T20:59:14.678Z,49.90
2019-01-30T21:01:44.054Z,51.37
2019-01-30T21:04:13.557Z,48.20
2019-01-30T21:06:42.990Z,49.07
2019-01-30T21:09:12.477Z,48.97
2019-01-30T21:11:41.874Z,49.20
2019-01-30T21:14:11.136Z,52.57
2019-01-30T21:16:42.263Z,50.53
2019-01-30T21:19:11.605Z,50.27
2019-01-30T21:21:41.170Z,55.33
2019-01-30T21:24:10.433Z,54.87
2019-01-30T21:26:39.857Z,54.77
2019-01-30T21:29:09.177Z,49.03
2019-01-30T21:31:39.665Z,57.00
2019-01-30T21:34:09.726Z,55.40
2019-01-30T21:36:39.277Z,60.87
2019-01-30T21:39:09.520Z,53.20
2019-01-30T21:41:39.033Z,52.27
2019-01-30T21:44:13.145Z,51.83
2019-01-30T21:46:42.899Z,53.63
2019-01-30T21:49:13.034Z,52.93
2019-01-30T21:51:44.430Z,51.23
2019-01-30T21:54:13.713Z,62.80
2019-01-30T21:56:43.290Z,56.40
2019-01-30T21:59:12.571Z,55.27
2019-01-30T22:01:42.079Z,57.57
2019-01-30T22:04:11.365Z,62.13
2019-01-30T22:06:41.717Z,64.27
2019-01-30T22:09:13.078Z,56.57
2019-01-30T22:11:42.574Z,63.63
2019-01-30T22:14:11.917Z,61.70
2019-01-30T22:16:41.378Z,59.20
2019-01-30T22:19:10.627Z,54.73
2019-01-30T22:21:40.433Z,56.47
2019-01-30T22:24:10.141Z,58.23
2019-01-30T22:26:42.105Z,56.37
2019-01-30T22:29:11.755Z,58.20
2019-01-30T22:31:41.159Z,56.70
2019-01-30T22:34:13.304Z,55.90
2019-01-30T22:36:42.188Z,55.47
2019-01-30T22:39:14.819Z,57.90
2019-01-30T22:41:46.146Z,54.47
2019-01-30T22:44:16.448Z,55.90
2019-01-30T22:46:48.569Z,52.00
2019-01-30T22:49:18.736Z,60.70
2019-01-30T22:51:50.481Z,56.07
2019-01-30T22:54:20.403Z,54.73
2019-01-30T22:56:50.406Z,56.10
2019-01-30T22:59:21.095Z,54.67
2019-01-30T23:01:56.769Z,61.53
2019-01-30T23:04:51.218Z,60.63
2019-01-30T23:08:07.786Z,58.03
2019-01-30T23:11:19.680Z,59.27
2019-01-30T23:14:12.935Z,57.57
2019-01-30T23:17:39.858Z,60.37
2019-01-30T23:20:33.499Z,63.33
2019-01-30T23:23:33.834Z,59.93
2019-01-30T23:26:19.485Z,59.77
2019-01-30T23:29:30.607Z,63.13
2019-01-30T23:32:25.226Z,61.30
2019-01-30T23:35:43.121Z,59.53
2019-01-30T23:39:09.274Z,56.37
2019-01-30T23:42:15.726Z,63.80
2019-01-30T23:45:17.603Z,56.90
2019-01-30T23:48:29.368Z,59.60
2019-01-30T23:51:21.822Z,58.07
2019-01-30T23:54:23.112Z,54.97
2019-01-30T23:57:04.486Z,53.77
